Main page
METAR-TAF:

METAR-TAF

Airports :

Liège, Belgium

Liège Airport

latitude: 50-39N, longitude: 005-27E, elevation: 186 m

Current weather observation

The report was made 25 minutes ago, at 08:50 UTC
Wind 10 kt from the Northeast
Temperature 9°C
Humidity 61%
Pressure 1024 hPa
Visibility 10 km or more
no clouds below 1500 m and no cumulonimbus

METAR: EBLG 260850Z 04010KT CAVOK 09/02 Q1024 NOSIG

Time: 11:15 (09:15 UTC)

Forecast

The report was made 4 hours and 13 minutes ago, at 05:02 UTC
Forecast valid from 26 at 06 UTC to 27 at 12 UTC
Wind 8 kt from the East/Northeast
Visibility 10 km or more
no clouds below 1500 m and no cumulonimbus

TAF: EBLG 260502Z 2606/2712 06008KT CAVOK

Weather observations and forecasts of more than 4000 airports (METAR and TAF reports).

The available stations are represented by yellow and red dots on the map.

Hover mouse over dot to see the name of the station.

Then click to see weather observations and forecasts.

To change the map : click on the green buttons with a black cross to zoom in, on the green button with a dash to zoom out, or on the green arrows for adjacent maps.


METAR-TAF: